createdAt,value
2022-12-20T00:00:05.214Z,6.09
2022-12-20T00:05:06.886Z,6.16
2022-12-20T00:10:08.831Z,6.29
2022-12-20T00:15:10.822Z,6.31
2022-12-20T00:20:12.923Z,6.25
2022-12-20T00:25:14.475Z,6.20
2022-12-20T00:30:16.491Z,6.20
2022-12-20T00:35:18.033Z,6.13
2022-12-20T00:40:19.630Z,6.05
2022-12-20T00:45:21.126Z,6.13
2022-12-20T00:50:22.721Z,6.32
2022-12-20T00:55:24.473Z,6.42
2022-12-20T01:00:26.010Z,6.41
2022-12-20T01:05:27.515Z,6.46
2022-12-20T01:10:28.992Z,6.38
2022-12-20T01:15:30.502Z,6.32
2022-12-20T01:20:31.994Z,6.20
2022-12-20T01:25:33.468Z,6.14
2022-12-20T01:30:34.950Z,6.18
2022-12-20T01:35:36.477Z,6.20
2022-12-20T01:40:39.293Z,6.13
2022-12-20T01:45:40.975Z,6.14
2022-12-20T01:50:42.742Z,6.11
2022-12-20T01:55:47.731Z,6.05
2022-12-20T02:00:49.445Z,5.97
2022-12-20T02:05:51.119Z,5.96
2022-12-20T02:11:31.497Z,6.05
2022-12-20T02:16:43.932Z,6.04
2022-12-20T02:22:22.451Z,6.05
2022-12-20T02:27:41.089Z,6.20
2022-12-20T02:33:07.007Z,6.23
2022-12-20T02:38:44.843Z,6.27
2022-12-20T02:44:11.726Z,6.29
2022-12-20T02:49:16.803Z,6.32
2022-12-20T02:54:19.131Z,6.24
2022-12-20T02:59:25.558Z,6.16
2022-12-20T03:04:30.819Z,6.18
2022-12-20T03:09:34.932Z,6.34
2022-12-20T03:14:36.464Z,6.41
2022-12-20T03:19:38.209Z,6.46
2022-12-20T03:24:39.741Z,6.51
2022-12-20T03:29:41.351Z,6.54
2022-12-20T03:34:42.890Z,6.64
2022-12-20T03:39:44.454Z,6.66
2022-12-20T03:44:46.177Z,6.75
2022-12-20T03:49:47.834Z,6.80
2022-12-20T03:54:49.543Z,6.89
2022-12-20T03:59:51.067Z,6.76
2022-12-20T04:04:52.576Z,6.78
2022-12-20T04:09:54.143Z,6.79
2022-12-20T04:14:55.651Z,6.67
2022-12-20T04:19:57.173Z,6.61
2022-12-20T04:24:58.659Z,6.54
2022-12-20T04:30:00.254Z,6.61
2022-12-20T04:35:01.948Z,6.74
2022-12-20T04:40:04.182Z,6.85
2022-12-20T04:45:05.981Z,6.93
2022-12-20T04:50:07.898Z,6.75
2022-12-20T04:55:09.614Z,6.76
2022-12-20T05:00:11.615Z,6.83
2022-12-20T05:05:14.080Z,6.81
2022-12-20T05:10:15.691Z,6.80
2022-12-20T05:15:17.606Z,6.69
2022-12-20T05:20:19.117Z,6.61
2022-12-20T05:25:39.520Z,6.75
2022-12-20T05:30:41.031Z,6.71
2022-12-20T05:35:42.594Z,6.57
2022-12-20T05:40:44.326Z,6.55
2022-12-20T05:45:47.353Z,6.64
2022-12-20T05:50:49.183Z,6.57
2022-12-20T05:55:53.272Z,6.46
2022-12-20T06:00:56.083Z,6.47
2022-12-20T06:05:57.712Z,6.52
2022-12-20T06:10:59.399Z,6.56
2022-12-20T06:16:00.962Z,6.51
2022-12-20T06:21:02.625Z,6.57
2022-12-20T06:26:09.153Z,6.70
2022-12-20T06:31:11.708Z,6.72
2022-12-20T06:36:13.637Z,6.75
2022-12-20T06:41:15.254Z,6.83
2022-12-20T06:46:16.972Z,6.92
2022-12-20T06:51:19.205Z,6.88
2022-12-20T06:56:20.832Z,6.82
2022-12-20T07:01:22.609Z,6.77
2022-12-20T07:06:24.327Z,6.90
2022-12-20T07:11:25.940Z,7.00
2022-12-20T07:16:27.765Z,6.98
2022-12-20T07:21:29.445Z,6.81
2022-12-20T07:26:31.059Z,6.82
2022-12-20T07:31:32.759Z,6.92
2022-12-20T07:36:35.524Z,6.93
2022-12-20T07:41:37.218Z,7.00
2022-12-20T07:46:39.212Z,7.06
2022-12-20T07:51:46.078Z,7.02
2022-12-20T07:56:50.508Z,7.10
2022-12-20T08:01:52.484Z,7.19
2022-12-20T08:06:57.077Z,7.22
2022-12-20T08:11:59.402Z,7.24
2022-12-20T08:17:01.109Z,7.14
2022-12-20T08:22:02.975Z,6.97
2022-12-20T08:27:04.636Z,7.06
2022-12-20T08:32:06.638Z,7.09
2022-12-20T08:37:14.471Z,7.22
2022-12-20T08:42:16.640Z,7.28
2022-12-20T08:47:18.368Z,7.19
2022-12-20T08:52:20.040Z,7.16
2022-12-20T08:57:21.726Z,7.23
2022-12-20T09:02:23.487Z,7.29
2022-12-20T09:07:25.164Z,7.19
2022-12-20T09:12:26.760Z,7.04
2022-12-20T09:17:28.455Z,6.85
2022-12-20T09:22:30.253Z,6.90
2022-12-20T09:27:31.879Z,7.00
2022-12-20T09:32:33.480Z,7.04
2022-12-20T09:37:35.203Z,7.00
2022-12-20T09:42:36.935Z,6.94
2022-12-20T09:47:39.321Z,6.93
2022-12-20T09:52:46.790Z,7.00
2022-12-20T09:57:57.237Z,7.11
2022-12-20T10:03:08.751Z,7.17
2022-12-20T10:08:56.647Z,7.11
2022-12-20T10:14:22.998Z,7.08
2022-12-20T10:19:44.236Z,7.25
2022-12-20T10:24:56.062Z,7.42
2022-12-20T10:29:57.642Z,7.54
2022-12-20T10:35:11.415Z,7.51
2022-12-20T10:40:53.325Z,7.29
2022-12-20T10:46:02.232Z,7.14
2022-12-20T10:51:16.166Z,7.13
2022-12-20T10:56:22.864Z,7.18
2022-12-20T11:01:29.258Z,7.20
2022-12-20T11:06:43.291Z,7.05
2022-12-20T11:12:04.532Z,7.08
2022-12-20T11:17:24.881Z,7.18
2022-12-20T11:22:37.472Z,7.30
2022-12-20T11:27:57.566Z,7.39
2022-12-20T11:33:05.167Z,7.39
2022-12-20T11:38:37.385Z,7.51
2022-12-20T11:44:25.187Z,7.63
2022-12-20T11:49:30.540Z,7.71
2022-12-20T11:55:15.502Z,7.79
2022-12-20T12:00:25.448Z,7.79
2022-12-20T12:05:47.778Z,7.79
2022-12-20T12:11:04.233Z,7.85
2022-12-20T12:16:05.768Z,7.89
2022-12-20T12:21:25.443Z,7.95
2022-12-20T12:26:33.155Z,7.88
2022-12-20T12:31:37.439Z,7.85
2022-12-20T12:37:03.675Z,7.94
2022-12-20T12:42:08.137Z,7.99
2022-12-20T12:47:35.655Z,8.01
2022-12-20T12:52:42.603Z,7.89
2022-12-20T12:57:58.709Z,7.82
2022-12-20T13:03:14.333Z,7.85
2022-12-20T13:08:17.357Z,7.90
2022-12-20T13:13:23.587Z,7.92
2022-12-20T13:18:26.477Z,7.86
2022-12-20T13:23:28.183Z,7.86
2022-12-20T13:28:29.944Z,7.88
2022-12-20T13:33:51.842Z,7.86
2022-12-20T13:38:58.201Z,7.88
2022-12-20T13:44:08.309Z,7.95
2022-12-20T13:49:15.293Z,7.90
2022-12-20T13:54:25.192Z,7.84
2022-12-20T13:59:33.369Z,7.77
2022-12-20T14:04:42.161Z,7.83
2022-12-20T14:09:55.948Z,7.84
2022-12-20T14:14:57.993Z,7.80
2022-12-20T14:20:15.263Z,7.79
2022-12-20T14:25:22.421Z,7.83
2022-12-20T14:30:28.898Z,7.87
2022-12-20T14:35:30.691Z,7.87
2022-12-20T14:40:41.951Z,7.83
2022-12-20T14:45:44.115Z,7.89
2022-12-20T14:50:53.820Z,7.89
2022-12-20T14:55:55.994Z,7.92
2022-12-20T15:01:17.425Z,7.94
2022-12-20T15:06:34.053Z,7.87
2022-12-20T15:11:37.416Z,7.91
2022-12-20T15:16:47.518Z,7.94
2022-12-20T15:21:49.223Z,7.94
2022-12-20T15:26:50.796Z,7.94
2022-12-20T15:31:57.746Z,7.90
2022-12-20T15:37:00.399Z,7.90
2022-12-20T15:42:05.037Z,7.84
2022-12-20T15:47:06.767Z,7.81
2022-12-20T15:52:16.218Z,7.78
2022-12-20T15:57:17.980Z,7.71
2022-12-20T16:02:28.697Z,7.65
2022-12-20T16:07:30.644Z,7.58
2022-12-20T16:12:36.729Z,7.54
2022-12-20T16:17:38.346Z,7.47
2022-12-20T16:22:39.973Z,7.50
2022-12-20T16:27:41.592Z,7.53
2022-12-20T16:32:43.192Z,7.44
2022-12-20T16:37:44.739Z,7.42
2022-12-20T16:42:47.277Z,7.48
2022-12-20T16:47:49.625Z,7.55
2022-12-20T16:52:51.962Z,7.48
2022-12-20T16:57:54.028Z,7.40
2022-12-20T17:02:56.765Z,7.40
2022-12-20T17:07:58.706Z,7.40
2022-12-20T17:13:00.389Z,7.42
2022-12-20T17:18:02.081Z,7.36
2022-12-20T17:23:03.712Z,7.31
2022-12-20T17:28:06.363Z,7.31
2022-12-20T17:33:14.406Z,7.34
2022-12-20T17:38:16.427Z,7.33
2022-12-20T17:43:18.141Z,7.33
2022-12-20T17:48:19.787Z,7.37
2022-12-20T17:53:21.837Z,7.39
2022-12-20T17:58:23.477Z,7.37
2022-12-20T18:04:01.571Z,7.38
2022-12-20T18:08:51.287Z,7.39
2022-12-20T18:13:55.299Z,7.47
2022-12-20T18:18:57.806Z,7.53
2022-12-20T18:23:59.496Z,7.57
2022-12-20T18:29:02.758Z,7.65
2022-12-20T18:34:04.955Z,7.70
2022-12-20T18:39:08.492Z,7.73
2022-12-20T18:44:11.853Z,7.77
2022-12-20T18:49:13.399Z,7.78
2022-12-20T18:54:14.914Z,7.78
2022-12-20T18:59:16.467Z,7.80
2022-12-20T19:04:24.367Z,7.82
2022-12-20T19:09:26.628Z,7.85
2022-12-20T19:14:29.850Z,7.86
2022-12-20T19:19:31.435Z,7.79
2022-12-20T19:24:33.047Z,7.82
2022-12-20T19:29:34.589Z,7.79
2022-12-20T19:34:36.081Z,7.78
2022-12-20T19:39:37.616Z,7.73
2022-12-20T19:44:39.262Z,7.70
2022-12-20T19:49:40.735Z,7.71
2022-12-20T19:54:43.216Z,7.71
2022-12-20T19:59:44.799Z,7.70
2022-12-20T20:04:46.350Z,7.65
2022-12-20T20:09:47.893Z,7.62
2022-12-20T20:14:49.485Z,7.58
2022-12-20T20:19:51.816Z,7.55
2022-12-20T20:24:53.315Z,7.47
2022-12-20T20:29:54.857Z,7.45
2022-12-20T20:34:56.428Z,7.40
2022-12-20T20:39:57.971Z,7.38
2022-12-20T20:44:59.526Z,7.34
2022-12-20T20:50:01.106Z,7.35
2022-12-20T20:55:03.049Z,7.31
2022-12-20T21:00:05.976Z,7.34
2022-12-20T21:05:52.818Z,7.29
2022-12-20T21:10:30.076Z,7.25
2022-12-20T21:15:33.812Z,7.17
2022-12-20T21:20:36.708Z,7.13
2022-12-20T21:25:38.217Z,7.10
2022-12-20T21:30:39.707Z,7.09
2022-12-20T21:35:41.237Z,7.08
2022-12-20T21:40:42.764Z,7.08
2022-12-20T21:45:44.298Z,7.08
2022-12-20T21:50:46.079Z,7.03
2022-12-20T21:55:47.614Z,6.92
2022-12-20T22:00:54.330Z,6.91
2022-12-20T22:05:56.745Z,6.86
2022-12-20T22:11:04.322Z,6.76
2022-12-20T22:16:16.906Z,6.72
2022-12-20T22:21:20.492Z,6.70
2022-12-20T22:26:24.397Z,6.64
2022-12-20T22:31:26.266Z,6.59
2022-12-20T22:36:28.145Z,6.56
2022-12-20T22:41:35.147Z,6.46
2022-12-20T22:46:36.850Z,6.37
2022-12-20T22:51:38.750Z,6.31
2022-12-20T22:56:40.241Z,6.34
2022-12-20T23:01:41.969Z,6.31
2022-12-20T23:06:43.530Z,6.21
2022-12-20T23:12:04.082Z,6.06
2022-12-20T23:17:08.488Z,5.86
2022-12-20T23:22:30.819Z,5.82
2022-12-20T23:27:32.640Z,5.76
2022-12-20T23:32:34.328Z,5.67
2022-12-20T23:37:36.073Z,5.62
2022-12-20T23:42:37.695Z,5.54
2022-12-20T23:47:39.251Z,5.42
2022-12-20T23:52:40.841Z,5.27
2022-12-20T23:57:42.367Z,5.21
